createdAt,value
2023-09-14T00:01:29.155Z,13.60
2023-09-14T00:04:35.519Z,13.58
2023-09-14T00:07:43.366Z,13.57
2023-09-14T00:10:49.918Z,13.54
2023-09-14T00:13:56.618Z,13.52
2023-09-14T00:17:03.492Z,13.52
2023-09-14T00:20:09.326Z,13.50
2023-09-14T00:23:15.279Z,13.48
2023-09-14T00:26:22.206Z,13.47
2023-09-14T00:29:27.522Z,13.43
2023-09-14T00:32:32.482Z,13.40
2023-09-14T00:35:39.945Z,13.36
2023-09-14T00:38:46.635Z,13.34
2023-09-14T00:41:53.194Z,13.34
2023-09-14T00:44:59.976Z,13.34
2023-09-14T00:48:10.099Z,13.33
2023-09-14T00:51:18.148Z,13.30
2023-09-14T00:54:24.510Z,13.27
2023-09-14T00:57:31.885Z,13.28
2023-09-14T01:00:39.153Z,13.26
2023-09-14T01:03:45.153Z,13.22
2023-09-14T01:06:52.051Z,13.19
2023-09-14T01:09:58.502Z,13.15
2023-09-14T01:13:07.253Z,13.14
2023-09-14T01:16:33.373Z,13.11
2023-09-14T01:19:58.667Z,13.07
2023-09-14T01:23:18.336Z,13.03
2023-09-14T01:26:23.896Z,13.01
2023-09-14T01:29:30.568Z,13.01
2023-09-14T01:32:36.565Z,13.02
2023-09-14T01:35:45.667Z,13.02
2023-09-14T01:38:50.801Z,13.00
2023-09-14T01:41:58.191Z,12.97
2023-09-14T01:45:05.469Z,12.94
2023-09-14T01:48:12.362Z,12.95
2023-09-14T01:51:18.418Z,12.97
2023-09-14T01:54:23.898Z,13.03
2023-09-14T01:57:28.910Z,13.05
2023-09-14T02:00:34.693Z,13.06
2023-09-14T02:03:40.824Z,13.09
2023-09-14T02:06:48.269Z,13.10
2023-09-14T02:09:54.583Z,13.11
2023-09-14T02:13:01.283Z,13.10
2023-09-14T02:16:08.200Z,13.09
2023-09-14T02:19:15.447Z,13.07
2023-09-14T02:22:22.518Z,13.05
2023-09-14T02:25:29.417Z,13.02
2023-09-14T02:28:35.559Z,13.00
2023-09-14T02:31:41.982Z,12.99
2023-09-14T02:34:49.227Z,12.97
2023-09-14T02:37:56.619Z,12.95
2023-09-14T02:41:01.764Z,12.90
2023-09-14T02:44:08.731Z,12.93
2023-09-14T02:47:15.192Z,12.97
2023-09-14T02:50:21.684Z,13.01
2023-09-14T02:53:28.869Z,13.03
2023-09-14T02:56:35.537Z,13.01
2023-09-14T02:59:41.300Z,12.96
2023-09-14T03:02:48.739Z,12.96
2023-09-14T03:05:56.584Z,12.94
2023-09-14T03:09:03.764Z,12.93
2023-09-14T03:12:11.099Z,12.94
2023-09-14T03:15:17.594Z,12.94
2023-09-14T03:18:23.797Z,12.93
2023-09-14T03:21:43.944Z,12.94
2023-09-14T03:24:50.622Z,12.94
2023-09-14T03:27:57.481Z,12.94
2023-09-14T03:31:03.802Z,12.94
2023-09-14T03:34:10.315Z,12.91
2023-09-14T03:37:16.958Z,12.90
2023-09-14T03:40:22.923Z,12.86
2023-09-14T03:43:29.908Z,12.84
2023-09-14T03:46:36.383Z,12.83
2023-09-14T03:49:43.362Z,12.79
2023-09-14T03:52:50.051Z,12.79
2023-09-14T03:55:56.214Z,12.80
2023-09-14T03:59:04.516Z,12.83
2023-09-14T04:02:11.195Z,12.82
2023-09-14T04:05:30.762Z,12.85
2023-09-14T04:08:37.759Z,12.88
2023-09-14T04:11:42.785Z,12.92
2023-09-14T04:14:52.661Z,13.01
2023-09-14T04:17:59.343Z,13.09
2023-09-14T04:21:06.646Z,13.18
2023-09-14T04:24:12.699Z,13.31
2023-09-14T04:27:18.492Z,13.43
2023-09-14T04:30:24.671Z,13.53
2023-09-14T04:33:31.422Z,13.65
2023-09-14T04:36:39.107Z,13.73
2023-09-14T04:39:46.184Z,13.78
2023-09-14T04:42:51.453Z,13.83
2023-09-14T04:46:00.551Z,13.86
2023-09-14T04:49:07.354Z,13.88
2023-09-14T04:52:12.473Z,13.91
2023-09-14T04:55:18.708Z,13.94
2023-09-14T04:58:26.750Z,14.01
2023-09-14T05:01:33.360Z,14.07
2023-09-14T05:04:41.013Z,14.13
2023-09-14T05:07:48.862Z,14.18
2023-09-14T05:10:57.103Z,14.24
2023-09-14T05:14:03.353Z,14.31
2023-09-14T05:17:08.708Z,14.38
2023-09-14T05:20:16.701Z,14.45
2023-09-14T05:23:22.966Z,14.52
2023-09-14T05:26:27.929Z,14.61
2023-09-14T05:29:34.232Z,14.71
2023-09-14T05:32:39.640Z,14.79
2023-09-14T05:35:46.644Z,14.90
2023-09-14T05:38:54.839Z,15.00
2023-09-14T05:42:00.006Z,15.13
2023-09-14T05:45:06.080Z,15.25
2023-09-14T05:48:15.973Z,15.37
2023-09-14T05:51:21.799Z,15.49
2023-09-14T05:54:28.290Z,15.64
2023-09-14T05:57:33.893Z,15.78
2023-09-14T06:00:40.454Z,15.91
2023-09-14T06:03:47.595Z,16.03
2023-09-14T06:06:54.673Z,16.15
2023-09-14T06:10:01.249Z,16.29
2023-09-14T06:13:07.403Z,16.40
2023-09-14T06:16:13.701Z,16.54
2023-09-14T06:19:20.562Z,16.69
2023-09-14T06:22:27.303Z,16.85
2023-09-14T06:25:33.749Z,17.00
2023-09-14T06:28:40.097Z,17.14
2023-09-14T06:31:46.128Z,17.26
2023-09-14T06:34:51.708Z,17.36
2023-09-14T06:37:57.555Z,17.44
2023-09-14T06:41:04.185Z,17.49
2023-09-14T06:44:13.253Z,17.55
2023-09-14T06:47:19.046Z,17.64
2023-09-14T06:50:25.370Z,17.71
2023-09-14T06:53:31.448Z,17.80
2023-09-14T06:56:37.719Z,17.93
2023-09-14T06:59:43.545Z,18.07
2023-09-14T07:02:49.400Z,18.28
2023-09-14T07:05:56.527Z,18.48
2023-09-14T07:09:05.543Z,18.67
2023-09-14T07:12:14.583Z,18.89
2023-09-14T07:15:21.175Z,19.05
2023-09-14T07:18:45.287Z,19.23
2023-09-14T07:21:51.514Z,19.39
2023-09-14T07:24:58.807Z,19.51
2023-09-14T07:28:05.719Z,19.59
2023-09-14T07:31:12.549Z,19.65
2023-09-14T07:34:19.828Z,19.66
2023-09-14T07:37:27.637Z,19.68
2023-09-14T07:40:33.713Z,19.71
2023-09-14T07:43:41.530Z,19.77
2023-09-14T07:46:48.198Z,19.87
2023-09-14T07:49:55.412Z,19.97
2023-09-14T07:53:00.717Z,20.11
2023-09-14T07:56:08.099Z,20.21
2023-09-14T07:59:07.139Z,20.33
2023-09-14T08:02:16.739Z,20.45
2023-09-14T08:05:23.865Z,20.55
2023-09-14T08:08:29.859Z,20.70
2023-09-14T08:11:35.464Z,20.90
2023-09-14T08:14:43.706Z,21.11
2023-09-14T08:17:49.152Z,21.25
2023-09-14T08:20:56.044Z,21.43
2023-09-14T08:24:04.783Z,21.58
2023-09-14T08:27:10.510Z,21.72
2023-09-14T08:30:19.834Z,21.85
2023-09-14T08:33:25.877Z,21.97
2023-09-14T08:36:34.190Z,22.06
2023-09-14T08:39:39.131Z,22.16
2023-09-14T08:42:48.458Z,22.26
2023-09-14T08:45:54.411Z,22.36
2023-09-14T08:49:01.595Z,22.46
2023-09-14T08:52:08.901Z,22.58
2023-09-14T08:55:17.072Z,22.72
2023-09-14T08:58:22.594Z,22.89
2023-09-14T09:01:30.962Z,22.99
2023-09-14T09:04:38.623Z,23.02
2023-09-14T09:07:44.363Z,23.03
2023-09-14T09:10:50.214Z,23.08
2023-09-14T09:14:00.354Z,23.14
2023-09-14T09:17:06.339Z,23.23
2023-09-14T09:20:12.901Z,23.34
2023-09-14T09:23:19.532Z,23.50
2023-09-14T09:26:25.676Z,23.66
2023-09-14T09:29:37.013Z,23.73
2023-09-14T09:32:44.015Z,23.74
2023-09-14T09:35:52.010Z,23.77
2023-09-14T09:38:57.664Z,23.78
2023-09-14T09:42:02.408Z,23.89
2023-09-14T09:45:12.541Z,24.05
2023-09-14T09:48:19.335Z,24.26
2023-09-14T09:51:25.161Z,24.48
2023-09-14T09:54:36.819Z,24.58
2023-09-14T09:57:45.788Z,24.62
2023-09-14T10:00:52.650Z,24.64
2023-09-14T10:04:01.842Z,24.64
2023-09-14T10:07:10.593Z,24.75
2023-09-14T10:10:17.139Z,24.86
2023-09-14T10:13:24.730Z,24.96
2023-09-14T10:16:33.330Z,24.94
2023-09-14T10:19:41.624Z,24.91
2023-09-14T10:22:49.623Z,24.92
2023-09-14T10:25:56.929Z,24.94
2023-09-14T10:29:04.724Z,24.99
2023-09-14T10:32:14.803Z,25.03
2023-09-14T10:35:22.631Z,25.06
2023-09-14T10:38:30.074Z,25.10
2023-09-14T10:41:35.520Z,25.16
2023-09-14T10:44:43.675Z,25.27
2023-09-14T10:47:49.853Z,25.31
2023-09-14T10:50:56.080Z,25.39
2023-09-14T10:54:02.863Z,25.51
2023-09-14T10:57:16.349Z,25.61
2023-09-14T11:00:26.096Z,25.53
2023-09-14T11:03:33.484Z,25.37
2023-09-14T11:07:06.165Z,25.31
2023-09-14T11:10:21.449Z,25.38
2023-09-14T11:13:40.808Z,25.33
2023-09-14T11:17:02.939Z,25.30
2023-09-14T11:20:09.886Z,25.38
2023-09-14T11:23:18.114Z,25.43
2023-09-14T11:26:26.041Z,25.44
2023-09-14T11:29:34.568Z,25.59
2023-09-14T11:32:44.725Z,25.73
2023-09-14T11:35:56.972Z,25.83
2023-09-14T11:39:08.581Z,25.97
2023-09-14T11:42:15.792Z,26.13
2023-09-14T11:45:24.574Z,26.09
2023-09-14T11:51:39.284Z,25.98
2023-09-14T11:54:47.368Z,26.11
2023-09-14T11:57:55.810Z,26.18
2023-09-14T12:01:05.605Z,26.27
2023-09-14T12:04:13.552Z,26.32
2023-09-14T12:07:19.989Z,26.33
2023-09-14T12:10:35.454Z,26.38
2023-09-14T12:13:41.463Z,26.37
2023-09-14T12:16:46.863Z,26.38
2023-09-14T12:20:03.952Z,26.38
2023-09-14T12:23:08.799Z,26.41
2023-09-14T12:26:15.282Z,26.44
2023-09-14T12:29:20.910Z,26.45
2023-09-14T12:32:27.878Z,26.44
2023-09-14T12:35:33.380Z,26.43
2023-09-14T12:38:47.178Z,26.40
2023-09-14T12:41:48.424Z,26.37
2023-09-14T12:44:54.141Z,26.34
2023-09-14T12:48:04.229Z,26.29
2023-09-14T12:51:10.402Z,26.27
2023-09-14T12:54:18.282Z,26.28
2023-09-14T12:57:31.144Z,26.31
2023-09-14T13:00:44.769Z,26.36
2023-09-14T13:03:51.979Z,26.44
2023-09-14T13:06:58.320Z,26.54
2023-09-14T13:10:04.493Z,26.60
2023-09-14T13:13:32.175Z,26.64
2023-09-14T13:16:38.617Z,26.64
2023-09-14T13:19:46.602Z,26.65
2023-09-14T13:22:53.580Z,26.64
2023-09-14T13:25:58.652Z,26.60
2023-09-14T13:29:06.169Z,26.55
2023-09-14T13:32:12.199Z,26.52
2023-09-14T13:35:21.553Z,26.50
2023-09-14T13:38:25.755Z,26.43
2023-09-14T13:41:32.212Z,26.33
2023-09-14T13:44:38.724Z,26.20
2023-09-14T13:47:44.704Z,26.11
2023-09-14T13:50:50.447Z,26.03
2023-09-14T13:53:58.450Z,25.99
2023-09-14T13:57:04.497Z,25.95
2023-09-14T14:00:13.244Z,25.87
2023-09-14T14:03:28.339Z,25.83
2023-09-14T14:06:35.466Z,25.85
2023-09-14T14:09:44.609Z,25.84
2023-09-14T14:12:51.270Z,25.83
2023-09-14T14:15:58.122Z,25.86
2023-09-14T14:19:04.373Z,25.86
2023-09-14T14:22:10.954Z,25.85
2023-09-14T14:25:16.028Z,25.82
2023-09-14T14:42:29.743Z,25.38
2023-09-14T14:45:37.085Z,25.24
2023-09-14T14:48:46.156Z,25.08
2023-09-14T14:51:52.682Z,24.96
2023-09-14T14:54:58.620Z,24.83
2023-09-14T14:58:04.302Z,24.73
2023-09-14T15:01:10.736Z,24.61
2023-09-14T15:04:17.340Z,24.51
2023-09-14T15:07:25.447Z,24.40
2023-09-14T15:10:29.856Z,24.31
2023-09-14T15:13:35.522Z,24.21
2023-09-14T15:16:43.041Z,24.11
2023-09-14T15:19:51.345Z,24.01
2023-09-14T15:22:57.279Z,23.88
2023-09-14T15:26:04.874Z,23.79
2023-09-14T15:29:10.857Z,23.67
2023-09-14T15:32:16.920Z,23.52
2023-09-14T15:35:25.262Z,23.39
2023-09-14T15:38:31.743Z,23.24
2023-09-14T15:41:39.203Z,23.11
2023-09-14T15:44:47.808Z,22.96
2023-09-14T15:47:52.503Z,22.80
2023-09-14T15:50:58.326Z,22.66
2023-09-14T15:54:04.878Z,22.50
2023-09-14T15:57:12.024Z,22.38
2023-09-14T16:00:19.750Z,22.25
2023-09-14T16:03:27.718Z,22.13
2023-09-14T16:06:35.438Z,22.04
2023-09-14T16:09:41.536Z,21.94
2023-09-14T16:12:50.383Z,21.85
2023-09-14T16:16:01.605Z,21.75
2023-09-14T16:19:07.836Z,21.67
2023-09-14T16:22:16.023Z,21.59
2023-09-14T16:25:22.324Z,21.52
2023-09-14T16:28:31.003Z,21.44
2023-09-14T16:31:41.909Z,21.37
2023-09-14T16:34:47.434Z,21.30
2023-09-14T16:37:54.090Z,21.21
2023-09-14T16:41:08.491Z,21.14
2023-09-14T16:44:14.471Z,21.09
2023-09-14T16:47:19.740Z,21.03
2023-09-14T16:50:24.565Z,20.97
2023-09-14T16:53:31.195Z,20.88
2023-09-14T16:56:37.393Z,20.79
2023-09-14T16:59:44.617Z,20.69
2023-09-14T17:02:50.111Z,20.58
2023-09-14T17:05:57.114Z,20.46
2023-09-14T17:09:04.784Z,20.34
2023-09-14T17:12:12.006Z,20.25
2023-09-14T17:15:16.966Z,20.15
2023-09-14T17:18:24.570Z,20.06
2023-09-14T17:21:31.917Z,19.97
2023-09-14T17:24:37.221Z,19.87
2023-09-14T17:27:43.458Z,19.79
2023-09-14T17:30:50.930Z,19.68
2023-09-14T17:33:58.395Z,19.57
2023-09-14T17:37:06.678Z,19.47
2023-09-14T17:40:15.950Z,19.38
2023-09-14T17:43:23.248Z,19.29
2023-09-14T17:46:30.726Z,19.20
2023-09-14T17:49:38.695Z,19.13
2023-09-14T17:52:45.065Z,19.04
2023-09-14T17:55:50.401Z,18.96
2023-09-14T17:58:59.637Z,18.87
2023-09-14T18:02:07.587Z,18.82
2023-09-14T18:05:16.177Z,18.76
2023-09-14T18:08:21.913Z,18.68
2023-09-14T18:11:32.385Z,18.64
2023-09-14T18:14:38.810Z,18.57
2023-09-14T18:17:46.699Z,18.49
2023-09-14T18:20:52.861Z,18.42
2023-09-14T18:24:00.633Z,18.36
2023-09-14T18:27:07.127Z,18.31
2023-09-14T18:30:14.221Z,18.28
2023-09-14T18:33:21.971Z,18.24
2023-09-14T18:36:28.972Z,18.21
2023-09-14T18:39:36.136Z,18.18
2023-09-14T18:42:42.090Z,18.11
2023-09-14T18:45:51.113Z,18.06
2023-09-14T18:49:00.133Z,18.00
2023-09-14T18:52:06.039Z,17.95
2023-09-14T18:55:14.133Z,17.88
2023-09-14T18:58:44.115Z,17.83
2023-09-14T19:01:31.133Z,17.78
2023-09-14T19:04:37.835Z,17.73
2023-09-14T19:07:45.545Z,17.68
2023-09-14T19:10:51.603Z,17.65
2023-09-14T19:13:58.076Z,17.64
2023-09-14T19:17:04.501Z,17.61
2023-09-14T19:20:13.911Z,17.58
2023-09-14T19:23:20.923Z,17.55
2023-09-14T19:26:27.968Z,17.54
2023-09-14T19:29:33.920Z,17.52
2023-09-14T19:32:40.653Z,17.53
2023-09-14T19:35:46.380Z,17.51
2023-09-14T19:38:53.324Z,17.51
2023-09-14T19:42:03.002Z,17.51
2023-09-14T19:45:08.950Z,17.52
2023-09-14T19:48:15.360Z,17.51
2023-09-14T19:51:21.163Z,17.52
2023-09-14T19:54:27.834Z,17.50
2023-09-14T19:57:33.622Z,17.46
2023-09-14T20:00:39.839Z,17.42
2023-09-14T20:03:49.297Z,17.38
2023-09-14T20:06:56.623Z,17.34
2023-09-14T20:10:02.247Z,17.28
2023-09-14T20:13:08.277Z,17.24
2023-09-14T20:16:13.738Z,17.19
2023-09-14T20:19:21.670Z,17.13
2023-09-14T20:22:29.653Z,17.10
2023-09-14T20:25:37.763Z,17.07
2023-09-14T20:28:45.746Z,17.05
2023-09-14T20:31:51.124Z,17.06
2023-09-14T20:34:56.703Z,17.07
2023-09-14T20:38:03.956Z,17.10
2023-09-14T20:41:11.858Z,17.13
2023-09-14T20:44:17.712Z,17.14
2023-09-14T20:47:25.543Z,17.17
2023-09-14T20:50:31.982Z,17.17
2023-09-14T20:53:40.103Z,17.18
2023-09-14T20:56:48.811Z,17.19
2023-09-14T20:59:55.711Z,17.18
2023-09-14T21:03:01.984Z,17.16
2023-09-14T21:06:17.467Z,17.15
2023-09-14T21:09:24.319Z,17.15
2023-09-14T21:12:29.898Z,17.16
2023-09-14T21:15:38.078Z,17.16
2023-09-14T21:18:43.895Z,17.20
2023-09-14T21:21:50.199Z,17.20
2023-09-14T21:24:55.924Z,17.21
2023-09-14T21:28:02.581Z,17.25
2023-09-14T21:31:04.817Z,17.27
2023-09-14T21:34:10.404Z,17.29
2023-09-14T21:37:17.457Z,17.30
2023-09-14T21:40:25.152Z,17.32
2023-09-14T21:43:30.892Z,17.35
2023-09-14T21:46:36.985Z,17.38
2023-09-14T21:49:58.611Z,17.39
2023-09-14T21:53:06.238Z,17.41
2023-09-14T21:56:12.259Z,17.42
2023-09-14T21:59:18.719Z,17.43
2023-09-14T22:02:24.166Z,17.46
2023-09-14T22:05:32.482Z,17.48
2023-09-14T22:08:38.563Z,17.52
2023-09-14T22:11:43.791Z,17.55
2023-09-14T22:14:49.857Z,17.57
2023-09-14T22:17:56.333Z,17.58
2023-09-14T22:21:02.602Z,17.59
2023-09-14T22:24:11.106Z,17.59
2023-09-14T22:27:16.550Z,17.59
2023-09-14T22:30:25.401Z,17.60
2023-09-14T22:33:32.556Z,17.60
2023-09-14T22:36:37.898Z,17.60
2023-09-14T22:39:43.967Z,17.62
2023-09-14T22:42:49.611Z,17.63
2023-09-14T22:45:55.413Z,17.64
2023-09-14T22:49:01.783Z,17.66
2023-09-14T22:52:08.076Z,17.67
2023-09-14T22:55:18.063Z,17.68
2023-09-14T22:58:24.231Z,17.71
2023-09-14T23:01:32.545Z,17.73
2023-09-14T23:04:39.623Z,17.76
2023-09-14T23:07:47.215Z,17.79
2023-09-14T23:10:54.519Z,17.82
2023-09-14T23:14:00.393Z,17.85
2023-09-14T23:17:06.835Z,17.86
2023-09-14T23:20:33.541Z,17.90
2023-09-14T23:23:34.103Z,17.92
2023-09-14T23:26:42.908Z,17.92
2023-09-14T23:29:48.794Z,17.92
2023-09-14T23:32:56.106Z,17.92
2023-09-14T23:36:02.451Z,17.90
2023-09-14T23:39:07.591Z,17.81
2023-09-14T23:42:15.694Z,17.72
2023-09-14T23:45:22.684Z,17.64
2023-09-14T23:48:29.121Z,17.60
2023-09-14T23:51:35.835Z,17.55
2023-09-14T23:54:41.755Z,17.50
2023-09-14T23:57:48.104Z,17.43
